Time;durP1;ratioP1;P1;durP2;ratioP2;P2;SDS_P1;SDS_P2;PMS_P1;PMS_P2;Temp;Humidity;BMP_temperature;BMP_pressure;BME280_temperature;BME280_humidity;BME280_pressure;Samples;Min_cycle;Max_cycle;Signal;HPM_P1;HPM_P2
2023/06/25 00:01:06;;;;;;;5.30;4.90;;;;;;;18.68;82.04;96876.53;5045227;28;20628;-67
2023/06/25 00:03:32;;;;;;;5.03;4.63;;;;;;;18.71;81.16;96870.78;5063237;28;20210;-67
2023/06/25 00:05:59;;;;;;;5.13;4.72;;;;;;;18.57;81.90;96877.00;5045517;28;20299;-67
2023/06/25 00:08:25;;;;;;;5.03;4.63;;;;;;;18.52;84.25;96875.91;5062801;28;20233;-67
2023/06/25 00:10:54;;;;;;;5.28;4.88;;;;;;;18.46;83.86;96873.97;5045908;28;20234;-67
2023/06/25 00:13:20;;;;;;;5.68;5.10;;;;;;;18.45;82.97;96873.13;5037199;28;20269;-67
2023/06/25 00:15:46;;;;;;;5.47;4.97;;;;;;;18.38;80.67;96867.69;5058444;28;20204;-66
2023/06/25 00:18:15;;;;;;;5.13;4.70;;;;;;;18.27;84.18;96875.34;5067091;28;20237;-67
2023/06/25 00:20:41;;;;;;;5.40;5.00;;;;;;;18.27;85.23;96865.47;5063383;28;20239;-67
2023/06/25 00:23:08;;;;;;;4.90;4.60;;;;;;;18.16;86.42;96868.63;5055140;28;20656;-67
2023/06/25 00:25:36;;;;;;;5.20;4.80;;;;;;;18.18;85.56;96857.72;5053603;28;20620;-66
2023/06/25 00:28:08;;;;;;;5.03;4.65;;;;;;;18.14;86.22;96865.28;5053903;28;20203;-67
2023/06/25 00:30:36;;;;;;;4.97;4.57;;;;;;;18.12;86.88;96866.47;5053195;28;20583;-67
2023/06/25 00:33:03;;;;;;;5.53;5.13;;;;;;;18.08;86.79;96860.66;5053819;28;20215;-66
2023/06/25 00:35:45;;;;;;;6.55;4.85;;;;;;;18.06;87.39;96851.19;5048095;28;20219;-68
2023/06/25 00:38:12;;;;;;;5.90;5.40;;;;;;;17.95;87.83;96854.31;5052287;28;20293;-67
2023/06/25 00:40:38;;;;;;;5.93;5.35;;;;;;;17.93;88.82;96849.13;5054034;28;20214;-66
2023/06/25 00:43:06;;;;;;;6.40;5.20;;;;;;;17.90;87.28;96847.66;5053313;28;20203;-66
2023/06/25 00:45:34;;;;;;;5.88;5.38;;;;;;;17.93;85.17;96846.44;5055925;28;20207;-67
2023/06/25 00:48:01;;;;;;;5.90;5.40;;;;;;;17.76;83.66;96851.13;5057187;28;20227;-66
2023/06/25 00:50:28;;;;;;;5.72;5.18;;;;;;;17.78;88.23;96853.66;5057497;28;20586;-66
2023/06/25 00:52:57;;;;;;;5.78;5.38;;;;;;;17.77;87.94;96850.13;5058539;28;20216;-66
2023/06/25 00:55:25;;;;;;;5.63;5.22;;;;;;;17.82;85.56;96846.88;5057226;28;20211;-67
2023/06/25 00:57:52;;;;;;;5.50;5.10;;;;;;;17.61;85.79;96842.25;5047918;28;20207;-68
2023/06/25 01:00:19;;;;;;;6.07;5.57;;;;;;;17.61;90.63;96842.25;5057275;28;20211;-67
2023/06/25 01:02:51;;;;;;;5.90;5.35;;;;;;;17.55;86.69;96836.78;5056837;28;20341;-67
2023/06/25 01:05:21;;;;;;;5.80;5.40;;;;;;;17.60;87.81;96840.63;5046048;28;20353;-66
2023/06/25 01:07:48;;;;;;;6.50;5.70;;;;;;;17.63;89.21;96844.75;5057062;28;20218;-66
2023/06/25 01:10:17;;;;;;;5.40;5.00;;;;;;;17.65;90.04;96838.22;5049287;28;20247;-67
2023/06/25 01:12:43;;;;;;;5.63;5.07;;;;;;;17.58;87.57;96847.13;5044712;28;20207;-66
2023/06/25 01:15:10;;;;;;;5.80;5.40;;;;;;;17.64;87.85;96841.88;5057302;28;20595;-66
2023/06/25 01:17:37;;;;;;;5.80;5.30;;;;;;;17.65;90.27;96851.59;5070177;28;20206;-67
2023/06/25 01:20:05;;;;;;;5.85;5.35;;;;;;;17.65;90.56;96840.03;5077763;28;20207;-67
2023/06/25 01:22:36;;;;;;;5.68;5.25;;;;;;;17.60;90.23;96835.28;5078257;28;20187;-67
2023/06/25 01:25:04;;;;;;;5.65;5.15;;;;;;;17.58;89.48;96833.75;5062185;28;20195;-67
2023/06/25 01:27:33;;;;;;;5.38;4.93;;;;;;;17.58;89.37;96836.44;5055641;28;20202;-65
2023/06/25 01:30:00;;;;;;;6.35;5.88;;;;;;;17.59;90.00;96835.44;5056315;28;20207;-66
2023/06/25 01:32:26;;;;;;;5.75;5.35;;;;;;;17.50;88.73;96839.19;5053367;28;20207;-66
2023/06/25 01:34:53;;;;;;;5.63;5.18;;;;;;;17.38;88.90;96841.44;5049351;28;20211;-67
2023/06/25 01:37:19;;;;;;;5.85;5.35;;;;;;;17.33;92.04;96833.13;5056219;28;20214;-67
2023/06/25 01:39:49;;;;;;;5.82;5.43;;;;;;;17.32;92.56;96842.19;5057058;28;20207;-67
2023/06/25 01:42:17;;;;;;;5.57;5.07;;;;;;;17.26;94.23;96842.88;5056658;28;20218;-66
2023/06/25 01:44:45;;;;;;;5.95;5.45;;;;;;;17.30;92.30;96836.16;5056664;28;20203;-66
2023/06/25 01:47:12;;;;;;;5.57;5.18;;;;;;;17.28;92.59;96836.34;5056280;28;20321;-67
2023/06/25 01:49:40;;;;;;;7.32;5.60;;;;;;;17.26;90.98;96834.84;5057500;28;20207;-67
2023/06/25 01:52:10;;;;;;;5.60;5.10;;;;;;;17.23;92.01;96835.22;5058286;28;20280;-67
2023/06/25 01:54:37;;;;;;;5.60;5.13;;;;;;;17.10;93.88;96832.31;5059156;28;20203;-67
2023/06/25 01:57:06;;;;;;;5.80;5.40;;;;;;;17.12;92.78;96830.28;5058816;28;20215;-67
2023/06/25 01:59:34;;;;;;;5.85;5.35;;;;;;;17.10;94.20;96830.50;5060953;28;20203;-67
2023/06/25 02:02:00;;;;;;;6.20;5.60;;;;;;;17.11;92.80;96820.63;5071417;28;20213;-66
2023/06/25 02:04:27;;;;;;;5.45;5.05;;;;;;;17.09;92.09;96814.63;5060615;28;20310;-67
2023/06/25 02:06:54;;;;;;;6.13;5.53;;;;;;;17.03;94.14;96812.69;5079266;28;20210;-66
2023/06/25 02:09:21;;;;;;;5.78;5.28;;;;;;;17.06;92.16;96821.16;5065366;28;20231;-66
2023/06/25 02:11:47;;;;;;;5.90;5.40;;;;;;;17.00;94.44;96813.03;5056028;28;20238;-66
2023/06/25 02:14:16;;;;;;;5.40;4.97;;;;;;;16.95;93.33;96812.72;5063373;28;20222;-67
2023/06/25 02:16:43;;;;;;;5.07;4.68;;;;;;;16.87;95.84;96814.44;5056133;28;20222;-66
2023/06/25 02:19:11;;;;;;;6.28;5.68;;;;;;;16.91;94.43;96810.41;5055770;28;20630;-66
2023/06/25 02:21:40;;;;;;;5.60;5.20;;;;;;;16.87;92.97;96809.09;5057178;28;20317;-66
2023/06/25 02:24:09;;;;;;;5.65;5.20;;;;;;;16.80;95.21;96802.81;5057032;28;20202;-66
2023/06/25 02:26:36;;;;;;;5.55;5.15;;;;;;;16.78;96.88;96802.19;5055035;28;20199;-66
2023/06/25 02:29:02;;;;;;;5.80;5.22;;;;;;;16.65;96.83;96809.91;5052645;28;20631;-66
2023/06/25 02:31:30;;;;;;;5.47;5.07;;;;;;;16.68;94.91;96803.41;5043860;28;20227;-67
2023/06/25 02:33:57;;;;;;;5.55;5.05;;;;;;;16.66;93.43;96805.41;5048997;28;20203;-68
2023/06/25 02:36:23;;;;;;;5.78;5.38;;;;;;;16.62;96.91;96804.09;5044945;28;20217;-67
2023/06/25 02:38:51;;;;;;;5.75;5.15;;;;;;;16.57;97.38;96810.00;5055442;28;20210;-66
2023/06/25 02:41:19;;;;;;;5.30;4.90;;;;;;;16.61;95.38;96805.97;5055425;28;20199;-66
2023/06/25 02:43:45;;;;;;;5.80;5.32;;;;;;;16.59;97.60;96802.63;5056017;28;20209;-67
2023/06/25 02:46:11;;;;;;;5.95;5.45;;;;;;;16.60;97.22;96809.63;5055775;28;20211;-66
2023/06/25 02:48:42;;;;;;;5.63;5.22;;;;;;;16.57;97.48;96804.66;5054471;28;20207;-66
2023/06/25 02:51:09;;;;;;;5.38;4.97;;;;;;;16.57;96.63;96810.00;5051195;28;20218;-67
2023/06/25 02:53:36;;;;;;;5.35;4.85;;;;;;;16.54;95.88;96810.31;5052504;28;20589;-66
2023/06/25 02:56:02;;;;;;;5.72;5.22;;;;;;;16.49;97.97;96807.31;5055182;28;20211;-66
2023/06/25 02:58:29;;;;;;;5.40;4.95;;;;;;;16.45;97.23;96814.03;5055098;28;20261;-66
2023/06/25 03:00:55;;;;;;;5.70;5.25;;;;;;;16.47;96.16;96804.00;5055431;28;20207;-67
2023/06/25 03:03:24;;;;;;;5.70;5.30;;;;;;;16.34;95.26;96804.56;5055209;28;20215;-67
2023/06/25 03:05:53;;;;;;;5.53;5.13;;;;;;;16.32;96.96;96803.09;5054518;28;20203;-67
2023/06/25 03:08:24;;;;;;;5.55;5.13;;;;;;;16.36;100.00;96802.56;5055104;28;20211;-66
2023/06/25 03:10:51;;;;;;;6.13;5.60;;;;;;;16.41;99.86;96799.34;5057726;28;20203;-66
2023/06/25 03:13:17;;;;;;;5.65;5.15;;;;;;;16.40;97.55;96798.53;5054824;28;20207;-66
2023/06/25 03:15:44;;;;;;;5.40;5.00;;;;;;;16.40;99.00;96803.84;5054965;28;20215;-66
2023/06/25 03:18:12;;;;;;;5.80;5.38;;;;;;;16.36;96.76;96804.41;5062193;28;20211;-67
2023/06/25 03:20:39;;;;;;;6.40;5.80;;;;;;;16.35;98.94;96805.41;5072270;28;20243;-66
2023/06/25 03:23:07;;;;;;;5.82;5.20;;;;;;;16.35;100.00;96810.75;5073522;28;20207;-67
2023/06/25 03:25:35;;;;;;;6.00;5.50;;;;;;;16.33;99.60;96810.09;5074443;28;20206;-67
2023/06/25 03:28:01;;;;;;;5.43;5.00;;;;;;;16.29;100.00;96806.09;5089460;28;20202;-67
2023/06/25 03:30:29;;;;;;;6.30;5.75;;;;;;;16.24;99.20;96809.28;5096804;28;20202;-66
2023/06/25 03:32:56;;;;;;;6.10;5.60;;;;;;;16.25;100.00;96812.78;5081775;28;20250;-67
2023/06/25 03:35:22;;;;;;;6.30;5.70;;;;;;;16.28;99.99;96809.78;5059353;28;20539;-67
2023/06/25 03:37:49;;;;;;;5.78;5.35;;;;;;;16.30;99.81;96808.59;5055041;28;20203;-67
2023/06/25 03:40:17;;;;;;;6.10;5.60;;;;;;;16.31;98.84;96814.75;5054780;28;20654;-66
2023/06/25 03:42:44;;;;;;;5.82;5.38;;;;;;;16.23;99.40;96818.28;5054624;28;20222;-66
2023/06/25 03:45:13;;;;;;;5.60;5.20;;;;;;;16.23;99.21;96818.28;5054790;28;20214;-67
2023/06/25 03:47:40;;;;;;;5.65;5.20;;;;;;;16.24;100.00;96813.78;5054762;28;20210;-66
2023/06/25 03:50:08;;;;;;;6.72;5.15;;;;;;;16.26;99.94;96817.94;5054031;28;20199;-67
2023/06/25 03:52:37;;;;;;;5.38;4.97;;;;;;;16.23;100.00;96809.44;5054357;28;20701;-66
2023/06/25 03:55:05;;;;;;;6.05;5.45;;;;;;;16.25;100.00;96805.63;5054288;28;20206;-66
2023/06/25 03:57:33;;;;;;;5.40;5.00;;;;;;;16.22;100.00;96808.66;5054484;28;20231;-66
2023/06/25 04:00:00;;;;;;;5.70;5.20;;;;;;;16.29;99.61;96808.78;5054414;28;20207;-67
2023/06/25 04:02:26;;;;;;;5.47;5.07;;;;;;;16.27;99.51;96810.78;5044664;28;20216;-66
2023/06/25 04:04:54;;;;;;;5.22;4.82;;;;;;;16.26;100.00;96806.47;5053631;28;20631;-66
2023/06/25 04:07:21;;;;;;;5.67;5.20;;;;;;;16.26;100.00;96807.25;5054744;28;20215;-68
2023/06/25 04:09:49;;;;;;;5.35;4.95;;;;;;;16.24;100.00;96811.13;5053672;28;20293;-69
2023/06/25 04:12:16;;;;;;;5.65;5.20;;;;;;;16.30;100.00;96813.09;5053345;28;20671;-68
2023/06/25 04:14:44;;;;;;;5.43;4.93;;;;;;;16.30;100.00;96818.41;5053571;28;20208;-68
2023/06/25 04:17:10;;;;;;;5.75;5.25;;;;;;;16.33;100.00;96808.22;5053753;28;20608;-68
2023/06/25 04:19:38;;;;;;;5.97;5.47;;;;;;;16.39;100.00;96814.72;5053819;28;20203;-69
2023/06/25 04:22:05;;;;;;;5.82;5.32;;;;;;;16.46;100.00;96806.84;5066320;28;20239;-69
2023/06/25 04:24:32;;;;;;;5.68;5.13;;;;;;;16.52;100.00;96806.97;5057916;28;20214;-68
2023/06/25 04:26:58;;;;;;;5.40;5.00;;;;;;;16.55;100.00;96805.78;5058426;28;20522;-68
2023/06/25 04:29:25;;;;;;;5.95;5.40;;;;;;;16.59;100.00;96813.31;5058606;28;20222;-68
2023/06/25 04:31:53;;;;;;;5.20;4.80;;;;;;;16.65;100.00;96817.94;5066282;28;20222;-69
2023/06/25 04:34:20;;;;;;;6.05;5.47;;;;;;;16.69;100.00;96811.22;5057775;28;20203;-68
2023/06/25 04:36:46;;;;;;;6.13;5.60;;;;;;;16.77;100.00;96810.34;5057782;28;20291;-65
2023/06/25 04:39:13;;;;;;;5.50;5.00;;;;;;;16.84;100.00;96806.78;5057388;28;20207;-69
2023/06/25 04:41:39;;;;;;;5.57;5.07;;;;;;;16.96;100.00;96814.41;5057508;28;20221;-68
2023/06/25 04:44:06;;;;;;;5.88;5.40;;;;;;;17.08;100.00;96823.63;5056626;28;20287;-68
2023/06/25 04:46:32;;;;;;;5.32;4.88;;;;;;;17.22;100.00;96822.84;5057282;28;20268;-68
2023/06/25 04:49:00;;;;;;;5.63;5.22;;;;;;;17.29;100.00;96821.13;5056848;28;20203;-69
2023/06/25 04:51:27;;;;;;;6.63;5.22;;;;;;;17.49;99.83;96816.13;5057332;28;20227;-63
2023/06/25 04:53:53;;;;;;;5.55;5.15;;;;;;;17.64;97.94;96819.69;5056970;28;20210;-68
2023/06/25 04:56:20;;;;;;;5.57;5.18;;;;;;;17.71;95.89;96815.28;5057177;28;20203;-69
2023/06/25 04:58:46;;;;;;;5.47;5.07;;;;;;;17.84;95.51;96816.28;5056335;28;20632;-68
2023/06/25 05:01:13;;;;;;;5.70;5.30;;;;;;;17.96;93.09;96813.16;5056997;28;20218;-58
2023/06/25 05:03:39;;;;;;;5.82;5.32;;;;;;;18.02;94.96;96815.91;5059008;28;20199;-66
2023/06/25 05:06:07;;;;;;;5.28;4.90;;;;;;;18.11;94.15;96811.28;5056535;28;20322;-66
2023/06/25 05:08:33;;;;;;;6.00;5.50;;;;;;;18.19;93.52;96814.69;5057116;28;20207;-65
2023/06/25 05:11:00;;;;;;;5.15;4.75;;;;;;;18.25;93.09;96811.28;5056915;28;20636;-66
2023/06/25 05:13:29;;;;;;;5.50;5.10;;;;;;;18.43;90.43;96821.59;5055683;28;20237;-66
2023/06/25 05:15:56;;;;;;;5.13;4.72;;;;;;;18.58;86.28;96814.41;5056413;28;20217;-66
2023/06/25 05:18:22;;;;;;;5.43;5.03;;;;;;;18.64;87.36;96820.84;5056333;28;20210;-58
2023/06/25 05:20:49;;;;;;;4.97;4.60;;;;;;;18.85;87.24;96815.50;5051510;28;20239;-64
2023/06/25 05:23:16;;;;;;;5.32;4.93;;;;;;;19.02;84.13;96824.16;5056336;28;20246;-62
2023/06/25 05:25:43;;;;;;;5.32;5.00;;;;;;;19.12;77.90;96816.63;5056886;28;20214;-64
2023/06/25 05:28:09;;;;;;;5.35;4.95;;;;;;;19.28;77.27;96819.00;5051749;28;20215;-64
2023/06/25 05:30:36;;;;;;;5.50;5.10;;;;;;;19.43;76.36;96825.16;5056090;28;20214;-63
2023/06/25 05:33:03;;;;;;;5.30;4.90;;;;;;;19.62;75.80;96812.94;5053923;28;20597;-61
2023/06/25 05:35:29;;;;;;;5.47;4.97;;;;;;;19.76;74.95;96815.53;5049128;28;20269;-57
2023/06/25 05:37:56;;;;;;;4.70;4.40;;;;;;;19.89;74.97;96817.47;5049987;28;20286;-60
2023/06/25 05:40:25;;;;;;;5.28;4.88;;;;;;;20.06;74.28;96828.72;5056070;28;20207;-61
2023/06/25 05:42:51;;;;;;;5.20;4.80;;;;;;;20.17;72.69;96825.47;5063229;28;20191;-62
2023/06/25 05:45:19;;;;;;;5.53;5.07;;;;;;;20.36;72.54;96822.09;5074314;28;20270;-60
2023/06/25 05:47:45;;;;;;;5.40;5.00;;;;;;;20.51;72.56;96821.97;5069413;28;20226;-62
2023/06/25 05:50:12;;;;;;;5.43;5.03;;;;;;;20.67;72.14;96821.59;5057839;28;20694;-58
2023/06/25 05:52:39;;;;;;;5.32;5.03;;;;;;;20.79;71.27;96823.50;5058283;28;20246;-63
2023/06/25 05:55:06;;;;;;;6.20;5.70;;;;;;;20.79;68.00;96820.00;5049926;28;20227;-65
2023/06/25 05:57:34;;;;;;;5.15;4.75;;;;;;;20.96;69.19;96820.44;5048255;28;20681;-70
2023/06/25 06:00:00;;;;;;;5.90;5.40;;;;;;;20.98;69.06;96819.19;5056653;28;20210;-62
2023/06/25 06:02:30;;;;;;;5.15;4.75;;;;;;;21.09;69.18;96817.78;5060092;28;20198;-65
2023/06/25 06:04:58;;;;;;;6.40;5.47;;;;;;;21.24;67.73;96821.97;5055896;28;20231;-63
2023/06/25 06:07:27;;;;;;;6.32;5.88;;;;;;;21.39;67.72;96812.88;5059830;28;20316;-62
2023/06/25 06:09:53;;;;;;;5.20;4.70;;;;;;;21.47;66.72;96815.38;5055654;28;20215;-61
2023/06/25 06:12:20;;;;;;;5.57;5.13;;;;;;;21.74;66.81;96812.47;5055580;28;20242;-61
2023/06/25 06:14:48;;;;;;;5.65;5.22;;;;;;;21.83;65.47;96810.38;5055780;28;20627;-62
2023/06/25 06:17:14;;;;;;;4.97;4.68;;;;;;;22.06;65.79;96813.47;5046570;28;20651;-62
2023/06/25 06:19:41;;;;;;;5.50;5.10;;;;;;;22.10;63.54;96814.72;5055722;28;20211;-62
2023/06/25 06:22:07;;;;;;;5.15;4.75;;;;;;;22.33;63.78;96806.97;5045880;28;20292;-62
2023/06/25 06:24:34;;;;;;;5.50;5.10;;;;;;;22.50;63.48;96799.22;5056206;28;20298;-61
2023/06/25 06:27:00;;;;;;;4.60;4.30;;;;;;;22.70;63.61;96793.78;5046253;28;20237;-62
2023/06/25 06:29:27;;;;;;;5.22;4.82;;;;;;;22.93;63.31;96793.22;5059397;28;20216;-62
2023/06/25 06:31:55;;;;;;;5.35;4.95;;;;;;;23.11;61.50;96793.31;5045638;28;20234;-62
2023/06/25 06:34:21;;;;;;;5.78;5.32;;;;;;;23.24;61.90;96794.06;5058189;28;20872;-62
2023/06/25 06:36:48;;;;;;;5.13;4.72;;;;;;;23.41;60.08;96796.25;5053380;28;20207;-61
2023/06/25 06:39:15;;;;;;;5.45;5.00;;;;;;;23.61;59.87;96795.06;5056622;28;20215;-61
2023/06/25 06:41:42;;;;;;;5.60;5.20;;;;;;;23.84;60.18;96802.56;5055449;28;20239;-62
2023/06/25 06:44:14;;;;;;;5.60;5.20;;;;;;;23.91;58.30;96805.19;5054640;28;20211;-63
2023/06/25 06:46:41;;;;;;;6.05;5.57;;;;;;;24.01;58.89;96806.31;5055282;28;20203;-61
2023/06/25 06:49:09;;;;;;;5.30;4.90;;;;;;;24.13;60.16;96803.72;5052762;28;20222;-62
2023/06/25 06:51:36;;;;;;;5.30;4.90;;;;;;;24.25;58.28;96810.03;5034910;28;20212;-62
2023/06/25 06:54:03;;;;;;;5.43;4.93;;;;;;;23.98;57.53;96804.06;5042103;28;20571;-62
2023/06/25 06:56:30;;;;;;;5.82;5.32;;;;;;;24.28;59.57;96807.72;5065825;28;20298;-62
2023/06/25 06:58:56;;;;;;;6.07;5.57;;;;;;;24.37;58.76;96804.72;5067936;28;20222;-63
2023/06/25 07:01:26;;;;;;;5.57;5.18;;;;;;;24.64;57.60;96806.88;5065500;28;20210;-62
2023/06/25 07:03:53;;;;;;;5.95;5.45;;;;;;;24.81;59.11;96811.66;5057060;28;20234;-62
2023/06/25 07:06:21;;;;;;;6.28;5.70;;;;;;;24.98;59.00;96812.69;5055606;28;20207;-62
2023/06/25 07:08:48;;;;;;;6.13;5.63;;;;;;;25.05;55.35;96813.41;5068064;28;20226;-62
2023/06/25 07:11:16;;;;;;;5.20;4.80;;;;;;;25.31;55.32;96810.34;5043730;28;20219;-62
2023/06/25 07:13:43;;;;;;;5.70;5.30;;;;;;;25.40;55.01;96800.03;5046519;28;20240;-62
2023/06/25 07:16:09;;;;;;;5.55;5.03;;;;;;;25.50;55.52;96806.50;5062991;28;20627;-61
2023/06/25 07:18:36;;;;;;;5.57;5.18;;;;;;;25.54;53.79;96806.91;5060189;28;20206;-62
2023/06/25 07:21:05;;;;;;;5.90;5.40;;;;;;;25.52;56.42;96803.59;5074526;28;20253;-62
2023/06/25 07:23:33;;;;;;;5.68;5.28;;;;;;;25.71;54.79;96808.69;5061500;28;20225;-62
2023/06/25 07:26:00;;;;;;;5.80;5.40;;;;;;;25.75;54.38;96800.94;5074877;28;20642;-62
2023/06/25 07:28:28;;;;;;;5.72;5.32;;;;;;;25.89;55.04;96804.22;5052928;28;20199;-61
2023/06/25 07:30:54;;;;;;;6.43;5.82;;;;;;;25.85;52.85;96811.16;5055243;28;20199;-62
2023/06/25 07:33:20;;;;;;;6.22;5.72;;;;;;;26.03;52.33;96806.47;5068192;28;20238;-61
2023/06/25 07:35:47;;;;;;;5.97;5.57;;;;;;;25.87;54.56;96795.50;5063616;28;20226;-62
2023/06/25 07:38:13;;;;;;;5.68;5.25;;;;;;;26.04;54.44;96801.88;5047734;28;20563;-61
2023/06/25 07:40:41;;;;;;;6.00;5.50;;;;;;;26.36;51.80;96808.56;5041785;28;20547;-62
2023/06/25 07:43:08;;;;;;;6.45;6.05;;;;;;;26.39;51.24;96808.13;5046826;28;20203;-62
2023/06/25 07:45:34;;;;;;;5.80;5.40;;;;;;;26.48;51.49;96803.97;5059807;28;20210;-61
2023/06/25 07:48:01;;;;;;;6.40;5.90;;;;;;;26.29;51.75;96816.00;5061085;28;20210;-62
2023/06/25 07:50:27;;;;;;;5.88;5.35;;;;;;;26.53;52.48;96812.22;5047903;28;20204;-62
2023/06/25 07:52:54;;;;;;;5.28;4.88;;;;;;;26.66;52.04;96801.09;5075082;28;20284;-62
2023/06/25 07:55:22;;;;;;;6.18;5.68;;;;;;;26.49;50.99;96800.19;5100115;28;20269;-63
2023/06/25 07:57:49;;;;;;;6.60;5.53;;;;;;;26.28;51.46;96800.00;5085255;28;20195;-62
2023/06/25 08:00:16;;;;;;;5.07;4.78;;;;;;;26.50;52.02;96798.31;5067719;28;20222;-62
2023/06/25 08:02:43;;;;;;;6.07;5.68;;;;;;;26.69;51.03;96799.78;5071435;28;20207;-62
2023/06/25 08:05:10;;;;;;;6.53;6.00;;;;;;;26.40;49.65;96796.19;5072930;28;20214;-62
2023/06/25 08:07:37;;;;;;;5.93;5.50;;;;;;;26.71;49.66;96795.75;5078860;28;20267;-61
2023/06/25 08:10:03;;;;;;;5.57;5.18;;;;;;;26.93;52.68;96800.53;5063936;28;20207;-62
2023/06/25 08:12:30;;;;;;;6.18;5.70;;;;;;;26.89;51.19;96799.41;5050012;28;20228;-62
2023/06/25 08:14:59;;;;;;;6.93;6.25;;;;;;;26.98;51.01;96796.06;5067391;28;20207;-62
2023/06/25 08:17:25;;;;;;;6.13;5.60;;;;;;;27.22;50.91;96794.03;5061191;28;20211;-62
2023/06/25 08:19:52;;;;;;;5.85;5.35;;;;;;;27.17;48.83;96792.03;5055731;28;20207;-62
2023/06/25 08:22:18;;;;;;;5.25;4.85;;;;;;;27.30;51.32;96796.38;5060394;28;20243;-62
2023/06/25 08:24:45;;;;;;;5.63;5.22;;;;;;;27.00;51.15;96791.19;5051522;28;20217;-62
2023/06/25 08:27:11;;;;;;;6.07;5.57;;;;;;;26.89;49.82;96785.84;5047297;28;20207;-61
2023/06/25 08:29:39;;;;;;;6.15;5.65;;;;;;;26.62;50.50;96788.25;5052497;28;20204;-62
2023/06/25 08:32:08;;;;;;;6.32;5.85;;;;;;;26.87;49.13;96786.06;5047358;28;20214;-63
2023/06/25 08:34:38;;;;;;;6.57;5.97;;;;;;;26.92;50.19;96785.34;5047652;28;20222;-63
2023/06/25 08:37:05;;;;;;;6.35;5.95;;;;;;;26.98;50.87;96785.19;5070640;28;20226;-62
2023/06/25 08:39:31;;;;;;;6.10;5.35;;;;;;;26.98;49.23;96792.50;5044508;28;20202;-62
2023/06/25 08:42:00;;;;;;;6.07;5.63;;;;;;;26.86;52.09;96791.72;5048038;28;20216;-61
2023/06/25 08:44:26;;;;;;;6.20;5.60;;;;;;;27.06;52.75;96787.53;5040827;28;20203;-62
2023/06/25 08:46:55;;;;;;;5.25;4.85;;;;;;;27.31;50.96;96791.75;5047524;28;20211;-62
2023/06/25 08:49:29;;;;;;;6.38;5.50;;;;;;;27.57;49.41;96788.41;5064615;28;20291;-62
2023/06/25 08:51:59;;;;;;;5.90;5.40;;;;;;;27.62;48.32;96789.34;5063003;28;20206;-61
2023/06/25 08:54:26;;;;;;;5.30;4.90;;;;;;;27.76;49.91;96783.56;5051860;28;20236;-63
2023/06/25 08:56:55;;;;;;;5.68;5.28;;;;;;;27.46;48.00;96787.44;5051571;28;20207;-62
2023/06/25 08:59:21;;;;;;;5.30;4.90;;;;;;;27.68;47.46;96788.34;5036873;28;20231;-62
2023/06/25 09:01:48;;;;;;;5.97;5.38;;;;;;;27.66;46.70;96793.22;5063931;28;20585;-62
2023/06/25 09:04:14;;;;;;;5.38;4.97;;;;;;;27.68;46.84;96793.78;5062962;28;20639;-62
2023/06/25 09:06:42;;;;;;;5.53;5.13;;;;;;;27.61;48.01;96790.41;5062002;28;20229;-63
2023/06/25 09:09:09;;;;;;;4.85;4.47;;;;;;;27.44;48.06;96789.56;5048232;28;20222;-62
2023/06/25 09:11:39;;;;;;;4.93;4.60;;;;;;;27.68;49.40;96788.34;5049857;28;20609;-62
2023/06/25 09:14:08;;;;;;;5.80;5.15;;;;;;;27.67;48.26;96786.69;5074758;28;20674;-61
2023/06/25 09:16:46;;;;;;;5.18;4.72;;;;;;;27.56;49.79;96776.72;5077021;28;20207;-62
2023/06/25 09:19:16;;;;;;;5.57;5.18;;;;;;;27.74;47.13;96778.38;5054298;28;20200;-62
2023/06/25 09:21:45;;;;;;;5.10;4.70;;;;;;;27.97;49.22;96774.66;5043570;28;20255;-62
2023/06/25 09:24:15;;;;;;;5.00;4.63;;;;;;;27.89;47.38;96781.34;5047814;28;20202;-61
2023/06/25 09:26:47;;;;;;;4.97;4.68;;;;;;;28.07;48.85;96770.22;5055133;28;20656;-61
2023/06/25 09:29:20;;;;;;;4.80;4.50;;;;;;;28.34;50.16;96774.94;5046956;28;20218;-62
2023/06/25 09:31:47;;;;;;;4.70;4.30;;;;;;;28.56;49.39;96765.69;5057189;28;20229;-62
2023/06/25 09:34:15;;;;;;;5.07;4.68;;;;;;;28.70;48.69;96768.88;5055872;28;20223;-62
2023/06/25 09:36:45;;;;;;;5.03;4.65;;;;;;;28.73;45.82;96773.03;5056981;28;20203;-62
2023/06/25 09:39:12;;;;;;;5.43;4.93;;;;;;;28.51;45.47;96768.38;5051787;28;20218;-63
2023/06/25 09:41:41;;;;;;;5.63;5.22;;;;;;;28.52;44.94;96766.47;5044547;28;20210;-61
2023/06/25 09:44:08;;;;;;;5.22;4.85;;;;;;;28.31;48.78;96754.50;5056247;28;20214;-62
2023/06/25 09:46:37;;;;;;;4.75;4.45;;;;;;;28.36;48.32;96764.63;5058258;28;20615;-62
2023/06/25 09:49:05;;;;;;;5.57;5.18;;;;;;;28.22;46.15;96760.63;5060652;28;20203;-61
2023/06/25 09:51:34;;;;;;;4.80;4.40;;;;;;;28.57;49.73;96767.34;5067527;28;20293;-61
2023/06/25 09:54:06;;;;;;;5.18;4.70;;;;;;;28.82;48.46;96761.41;5058977;28;20671;-62
2023/06/25 09:56:34;;;;;;;4.95;4.63;;;;;;;29.06;48.44;96761.94;5038934;28;20208;-61
2023/06/25 09:59:03;;;;;;;5.43;5.03;;;;;;;29.14;47.15;96750.59;5052194;28;20208;-62
2023/06/25 10:01:30;;;;;;;5.40;5.00;;;;;;;29.13;45.13;96757.09;5040259;28;20559;-61
2023/06/25 10:03:56;;;;;;;5.10;4.75;;;;;;;29.24;48.05;96758.03;5056928;28;20195;-62
2023/06/25 10:06:26;;;;;;;5.07;4.68;;;;;;;29.36;47.10;96756.00;5069381;28;20183;-63
2023/06/25 10:08:52;;;;;;;4.88;4.57;;;;;;;29.13;45.18;96751.66;5078224;28;20203;-63
2023/06/25 10:11:20;;;;;;;4.55;4.25;;;;;;;29.32;47.33;96752.97;5070961;28;20234;-61
2023/06/25 10:13:48;;;;;;;4.80;4.50;;;;;;;29.33;46.05;96756.53;5047524;28;20230;-61
2023/06/25 10:16:18;;;;;;;5.18;4.78;;;;;;;29.34;45.34;96745.34;5076411;28;20207;-61
2023/06/25 10:18:45;;;;;;;5.18;4.78;;;;;;;29.49;46.22;96750.94;5076156;28;20281;-61
2023/06/25 10:21:18;;;;;;;5.10;4.70;;;;;;;29.50;44.41;96749.88;5063847;28;20247;-62
2023/06/25 10:23:56;;;;;;;4.93;4.63;;;;;;;29.65;44.83;96741.00;5042842;28;20648;-61
2023/06/25 10:26:30;;;;;;;12.85;11.75;;;;;;;29.90;45.26;96740.38;5068412;28;20224;-62
2023/06/25 10:29:00;;;;;;;5.20;4.90;;;;;;;29.76;43.71;96739.16;5057374;28;20203;-61
2023/06/25 10:31:37;;;;;;;5.45;4.95;;;;;;;29.84;46.53;96733.19;5056912;28;20191;-61
2023/06/25 10:34:05;;;;;;;5.32;4.93;;;;;;;29.89;46.69;96733.28;5056028;28;20215;-61
2023/06/25 10:36:32;;;;;;;4.95;4.55;;;;;;;29.86;43.58;96734.63;5054970;28;20210;-61
2023/06/25 10:39:00;;;;;;;5.47;4.97;;;;;;;29.97;45.88;96732.78;5056044;28;20222;-61
2023/06/25 10:41:30;;;;;;;5.00;4.60;;;;;;;29.91;43.97;96729.19;5055597;28;20211;-62
2023/06/25 10:43:57;;;;;;;4.95;4.55;;;;;;;29.76;43.23;96728.25;5055209;28;20690;-62
2023/06/25 10:46:30;;;;;;;5.93;4.90;;;;;;;29.69;44.06;96724.94;5055644;28;20298;-61
2023/06/25 10:48:59;;;;;;;4.55;4.25;;;;;;;29.79;44.07;96727.72;5053384;28;20206;-61
2023/06/25 10:51:26;;;;;;;4.75;4.40;;;;;;;29.77;44.35;96724.41;5034701;28;20207;-63
2023/06/25 10:53:55;;;;;;;4.88;4.47;;;;;;;29.72;42.35;96727.97;5075249;28;20233;-62
2023/06/25 10:56:24;;;;;;;4.65;4.35;;;;;;;29.82;44.87;96727.19;5066405;28;20238;-61
2023/06/25 10:59:03;;;;;;;6.03;5.00;;;;;;;29.84;44.53;96722.28;5044141;28;20640;-61
2023/06/25 11:01:35;;;;;;;4.63;4.32;;;;;;;29.81;43.19;96725.53;5075486;28;20214;-62
2023/06/25 11:04:02;;;;;;;4.72;4.43;;;;;;;29.94;43.70;96722.38;5070123;28;20231;-62
2023/06/25 11:06:29;;;;;;;4.60;4.30;;;;;;;29.90;46.54;96721.28;5055083;28;20230;-61
2023/06/25 11:08:56;;;;;;;5.18;4.78;;;;;;;29.94;44.12;96715.03;5055232;28;20314;-62
2023/06/25 11:11:23;;;;;;;4.80;4.50;;;;;;;29.71;41.99;96714.56;5055032;28;20206;-62
2023/06/25 11:13:50;;;;;;;5.13;4.63;;;;;;;29.88;41.59;96715.25;5054199;28;20234;-61
2023/06/25 11:16:22;;;;;;;4.93;4.53;;;;;;;30.01;42.16;96714.78;5055230;28;20284;-60
2023/06/25 11:18:50;;;;;;;5.22;4.72;;;;;;;30.04;43.52;96711.56;5055018;28;20317;-61
2023/06/25 11:21:19;;;;;;;4.95;4.55;;;;;;;29.96;44.16;96706.59;5055603;28;20773;-63
2023/06/25 11:23:45;;;;;;;4.88;4.47;;;;;;;29.90;42.71;96702.19;5055296;28;20280;-62
2023/06/25 11:26:17;;;;;;;5.10;4.70;;;;;;;30.05;41.58;96705.00;5057333;28;20517;-62
2023/06/25 11:28:48;;;;;;;4.78;4.47;;;;;;;30.28;42.40;96692.84;5041078;28;20257;-62
2023/06/25 11:31:14;;;;;;;4.80;4.43;;;;;;;30.37;43.81;96692.06;5043620;28;20215;-61
2023/06/25 11:33:44;;;;;;;4.32;4.03;;;;;;;30.54;44.30;96692.69;5065756;28;20234;-62